Time;durP1;ratioP1;P1;durP2;ratioP2;P2;SDS_P1;SDS_P2;PMS_P1;PMS_P2;Temp;Humidity;BMP_temperature;BMP_pressure;BME280_temperature;BME280_humidity;BME280_pressure;Samples;Min_cycle;Max_cycle;Signal;HPM_P1;HPM_P2
2023/04/25 00:04:08;;;;;;;15.50;4.97;;;6.60;99.90;;;;;;12565971;28;20052;-85
2023/04/25 00:10:17;;;;;;;16.88;5.28;;;6.70;99.90;;;;;;12549440;28;20091;-84
2023/04/25 00:16:26;;;;;;;12.85;4.60;;;6.80;99.90;;;;;;12546718;28;20049;-84
2023/04/25 00:22:37;;;;;;;12.05;4.50;;;6.70;99.90;;;;;;12560434;28;20488;-85
2023/04/25 00:28:45;;;;;;;12.40;5.47;;;6.70;99.90;;;;;;12566050;28;20045;-85
2023/04/25 00:34:55;;;;;;;14.90;5.57;;;6.60;99.90;;;;;;12541689;28;20092;-85
2023/04/25 00:41:05;;;;;;;14.77;6.45;;;6.70;99.90;;;;;;12551789;28;20049;-84
2023/04/25 00:47:15;;;;;;;14.68;5.32;;;6.60;99.90;;;;;;12536859;28;20139;-83
2023/04/25 00:53:25;;;;;;;15.77;5.15;;;6.60;99.90;;;;;;12528554;28;20041;-83
2023/04/25 00:59:37;;;;;;;21.45;5.78;;;6.70;99.90;;;;;;12533550;28;20132;-84
2023/04/25 01:05:48;;;;;;;21.55;5.80;;;6.80;99.90;;;;;;12527712;28;20132;-84
2023/04/25 01:11:57;;;;;;;15.77;6.53;;;6.70;99.90;;;;;;12522780;28;20214;-85
2023/04/25 01:18:06;;;;;;;20.55;7.18;;;6.50;99.90;;;;;;12504736;28;20053;-84
2023/04/25 01:24:21;;;;;;;22.83;6.75;;;6.50;99.90;;;;;;12520893;28;20408;-85
2023/04/25 01:30:30;;;;;;;19.27;6.65;;;6.50;99.90;;;;;;12539781;28;20096;-83
2023/04/25 01:36:40;;;;;;;16.40;6.85;;;6.50;99.90;;;;;;12506844;28;20063;-84
2023/04/25 01:42:48;;;;;;;13.73;5.63;;;6.40;99.90;;;;;;12510078;28;20049;-84
2023/04/25 01:48:56;;;;;;;15.23;5.88;;;6.40;99.90;;;;;;12499201;28;20068;-83
2023/04/25 01:55:09;;;;;;;16.30;5.93;;;6.50;99.90;;;;;;12516932;28;20587;-83
2023/04/25 02:01:17;;;;;;;13.68;5.65;;;6.30;99.90;;;;;;12530551;28;20056;-84
2023/04/25 02:07:26;;;;;;;14.80;4.63;;;6.40;99.90;;;;;;12511770;28;20053;-84
2023/04/25 02:13:35;;;;;;;11.80;4.15;;;6.40;99.90;;;;;;12510229;28;20068;-84
2023/04/25 02:19:46;;;;;;;17.15;4.25;;;6.40;99.90;;;;;;12507374;28;20148;-84
2023/04/25 02:26:01;;;;;;;11.10;3.28;;;6.40;99.90;;;;;;12518208;28;20049;-84
2023/04/25 02:32:09;;;;;;;19.58;4.03;;;6.30;99.90;;;;;;12516339;28;20072;-84
2023/04/25 02:38:17;;;;;;;19.83;3.70;;;6.20;99.90;;;;;;12503871;28;20056;-83
2023/04/25 02:44:26;;;;;;;19.40;4.50;;;6.10;99.90;;;;;;12511510;28;20355;-84
2023/04/25 02:50:35;;;;;;;13.73;3.58;;;6.10;99.90;;;;;;12506837;28;20049;-84
2023/04/25 02:56:44;;;;;;;20.65;5.68;;;6.10;99.90;;;;;;12519999;28;20094;-85
2023/04/25 03:02:52;;;;;;;18.90;3.60;;;6.10;99.90;;;;;;12522046;28;20508;-83
2023/04/25 03:09:00;;;;;;;24.08;3.75;;;6.10;99.90;;;;;;12524144;28;20049;-83
2023/04/25 03:15:08;;;;;;;23.00;4.03;;;6.20;99.90;;;;;;12496964;28;20057;-84
2023/04/25 03:21:17;;;;;;;19.95;3.35;;;6.10;99.90;;;;;;12515479;28;20053;-83
2023/04/25 03:27:31;;;;;;;21.90;3.97;;;6.10;99.90;;;;;;12458388;28;20452;-84
2023/04/25 03:33:40;;;;;;;16.83;3.50;;;6.10;99.90;;;;;;12483368;28;20050;-84
2023/04/25 03:39:48;;;;;;;22.27;3.70;;;6.20;99.90;;;;;;12504167;28;20421;-84
2023/04/25 03:46:03;;;;;;;18.05;4.25;;;6.20;99.90;;;;;;12477404;28;20095;-84
2023/04/25 03:52:12;;;;;;;23.48;6.30;;;6.00;99.90;;;;;;12487465;28;20046;-84
2023/04/25 03:58:20;;;;;;;18.10;4.07;;;6.20;99.90;;;;;;12470152;28;20208;-85
2023/04/25 04:04:28;;;;;;;16.50;3.95;;;6.20;99.90;;;;;;12463909;28;20100;-84
2023/04/25 04:10:37;;;;;;;21.08;3.88;;;6.10;99.90;;;;;;12482385;28;20049;-84
2023/04/25 04:16:45;;;;;;;13.13;3.63;;;6.10;99.90;;;;;;12450430;28;20057;-84
2023/04/25 04:22:54;;;;;;;16.60;3.47;;;6.00;99.90;;;;;;12477304;28;20086;-84
2023/04/25 04:29:10;;;;;;;19.77;3.45;;;6.00;99.90;;;;;;12518901;28;20068;-84
2023/04/25 04:35:18;;;;;;;17.40;3.50;;;5.90;99.90;;;;;;12528217;28;20056;-84
2023/04/25 04:41:26;;;;;;;20.38;4.35;;;5.90;99.90;;;;;;12519849;28;20422;-84
2023/04/25 04:47:36;;;;;;;20.70;3.80;;;6.00;99.90;;;;;;12528850;28;20084;-84
2023/04/25 04:53:44;;;;;;;16.58;3.25;;;5.90;99.90;;;;;;12526096;28;20060;-84
2023/04/25 04:59:54;;;;;;;14.50;3.42;;;5.90;99.90;;;;;;12525632;28;20058;-85
2023/04/25 05:06:03;;;;;;;15.88;4.25;;;6.00;99.90;;;;;;12504773;28;20085;-84
2023/04/25 05:12:11;;;;;;;17.10;3.33;;;6.00;99.90;;;;;;12500822;28;20638;-84
2023/04/25 05:18:19;;;;;;;17.85;3.63;;;5.90;99.90;;;;;;12512662;28;20120;-84
2023/04/25 05:24:33;;;;;;;22.15;3.97;;;6.10;99.90;;;;;;12507376;28;20053;-84
2023/04/25 05:30:42;;;;;;;15.70;4.07;;;6.00;99.90;;;;;;12529606;28;20191;-85
2023/04/25 05:36:50;;;;;;;21.38;3.85;;;6.00;99.90;;;;;;12526802;28;20136;-85
2023/04/25 05:42:58;;;;;;;23.52;3.75;;;6.20;99.90;;;;;;12522723;28;20045;-84
2023/04/25 05:49:06;;;;;;;19.75;4.07;;;6.00;99.90;;;;;;12511357;28;20404;-84
2023/04/25 05:55:16;;;;;;;22.23;4.45;;;6.20;99.90;;;;;;12517392;28;21123;-83
2023/04/25 06:01:25;;;;;;;16.58;3.63;;;6.30;99.90;;;;;;12521103;28;20071;-83
2023/04/25 06:07:33;;;;;;;17.25;3.75;;;6.20;99.90;;;;;;12507825;28;20116;-85
2023/04/25 06:13:41;;;;;;;18.35;4.07;;;6.20;99.90;;;;;;12543267;28;20049;-84
2023/04/25 06:19:56;;;;;;;19.95;3.58;;;6.20;99.90;;;;;;12540064;28;20052;-83
2023/04/25 06:26:13;;;;;;;14.88;3.30;;;6.30;99.90;;;;;;12484893;28;20049;-83
2023/04/25 06:32:22;;;;;;;13.27;2.70;;;6.30;99.90;;;;;;12511990;28;20045;-84
2023/04/25 06:38:30;;;;;;;19.00;3.53;;;6.30;99.90;;;;;;12508273;28;20049;-85
2023/04/25 06:44:42;;;;;;;18.98;3.40;;;6.30;99.90;;;;;;12479447;28;20058;-86
2023/04/25 06:50:50;;;;;;;18.73;3.05;;;6.50;99.90;;;;;;12492002;28;20057;-85
2023/04/25 06:57:00;;;;;;;15.45;3.25;;;6.60;99.90;;;;;;12506378;28;20045;-84
2023/04/25 07:03:08;;;;;;;17.52;3.22;;;6.50;99.90;;;;;;12487257;28;20531;-85
2023/04/25 07:09:16;;;;;;;26.48;4.00;;;6.70;99.90;;;;;;12478505;28;20072;-83
2023/04/25 07:15:25;;;;;;;14.35;3.55;;;6.60;99.90;;;;;;12486676;28;20125;-84
2023/04/25 07:21:33;;;;;;;18.00;3.30;;;7.00;99.90;;;;;;12482469;28;20053;-84
2023/04/25 07:27:49;;;;;;;17.00;2.95;;;6.90;99.90;;;;;;12487498;28;20061;-84
2023/04/25 07:33:57;;;;;;;16.55;3.00;;;7.00;99.90;;;;;;12459949;28;20077;-84
2023/04/25 07:40:07;;;;;;;16.52;4.30;;;7.10;99.90;;;;;;12487367;28;20523;-85
2023/04/25 07:46:15;;;;;;;13.15;2.35;;;7.20;99.90;;;;;;12480626;28;20085;-84
2023/04/25 07:52:23;;;;;;;15.80;2.30;;;7.30;99.90;;;;;;12493634;28;20056;-85
2023/04/25 07:58:32;;;;;;;10.15;2.25;;;7.30;99.90;;;;;;12466059;28;20077;-84
2023/04/25 08:04:40;;;;;;;11.45;2.00;;;7.70;99.90;;;;;;12484010;28;20058;-85
2023/04/25 08:10:48;;;;;;;12.95;2.30;;;8.00;99.90;;;;;;12470860;28;20049;-85
2023/04/25 08:16:57;;;;;;;7.65;1.85;;;8.00;99.90;;;;;;12470980;28;20621;-85
2023/04/25 08:23:05;;;;;;;14.30;2.75;;;8.40;99.90;;;;;;12478006;28;20056;-84
2023/04/25 08:29:14;;;;;;;9.90;2.17;;;7.80;99.90;;;;;;12534173;28;20143;-85
2023/04/25 08:35:23;;;;;;;12.20;2.10;;;7.60;99.90;;;;;;12537546;28;20148;-83
2023/04/25 08:41:31;;;;;;;8.45;1.70;;;8.00;99.90;;;;;;12522551;28;20050;-86
2023/04/25 08:47:41;;;;;;;5.60;1.58;;;8.50;99.90;;;;;;12523644;28;20065;-85
2023/04/25 08:53:51;;;;;;;6.00;1.23;;;8.50;99.90;;;;;;12524964;28;20041;-85
2023/04/25 09:00:12;;;;;;;13.52;1.75;;;8.10;99.90;;;;;;12524910;28;20056;-84
2023/04/25 09:06:22;;;;;;;4.97;1.50;;;7.70;99.90;;;;;;12514054;28;20405;-84
2023/04/25 09:12:31;;;;;;;8.35;1.50;;;7.70;99.90;;;;;;12523991;28;20052;-84
2023/04/25 09:18:39;;;;;;;8.85;1.60;;;7.80;99.90;;;;;;12537154;28;20049;-85
2023/04/25 09:24:56;;;;;;;6.75;1.40;;;7.60;99.90;;;;;;12526888;28;20052;-85
2023/04/25 09:31:05;;;;;;;6.63;1.90;;;7.60;99.90;;;;;;12522272;28;20055;-84
2023/04/25 09:37:24;;;;;;;8.48;1.40;;;7.50;99.90;;;;;;12513797;28;20056;-84
2023/04/25 09:43:32;;;;;;;5.30;1.27;;;7.50;99.90;;;;;;12518120;28;20083;-84
2023/04/25 09:49:42;;;;;;;5.18;1.60;;;7.50;99.90;;;;;;12533934;28;20596;-84
2023/04/25 09:55:52;;;;;;;9.52;1.63;;;7.50;99.90;;;;;;12535670;28;20133;-83
2023/04/25 10:02:01;;;;;;;10.13;1.40;;;7.60;99.90;;;;;;12572176;28;20056;-84
2023/04/25 10:08:11;;;;;;;10.18;2.08;;;8.10;99.90;;;;;;12574656;28;20064;-84
2023/04/25 10:14:22;;;;;;;6.90;1.40;;;9.10;99.90;;;;;;12527781;28;20075;-84
2023/04/25 10:20:31;;;;;;;4.80;1.45;;;9.50;99.90;;;;;;12522945;28;20080;-85
2023/04/25 10:26:47;;;;;;;5.78;1.33;;;9.70;99.90;;;;;;12500978;28;20049;-84
2023/04/25 10:32:58;;;;;;;5.80;1.23;;;10.10;99.90;;;;;;12494481;28;20068;-85
2023/04/25 10:39:08;;;;;;;6.57;1.17;;;9.50;99.90;;;;;;12469240;28;20054;-84
2023/04/25 10:45:17;;;;;;;8.18;1.52;;;9.30;99.90;;;;;;12477982;28;20061;-83
2023/04/25 10:51:34;;;;;;;4.57;0.95;;;8.90;99.90;;;;;;12470439;28;20057;-84
2023/04/25 10:57:56;;;;;;;5.40;1.10;;;9.10;99.90;;;;;;12464709;28;20133;-82
2023/04/25 11:04:04;;;;;;;5.13;0.90;;;9.20;99.90;;;;;;12453177;28;20142;-84
2023/04/25 11:10:14;;;;;;;6.05;1.13;;;9.00;99.90;;;;;;12480846;28;20061;-84
2023/04/25 11:16:25;;;;;;;3.15;1.00;;;8.80;99.90;;;;;;12461093;28;20136;-84
2023/04/25 11:22:33;;;;;;;6.13;0.90;;;8.70;99.90;;;;;;12477371;28;20187;-84
2023/04/25 11:28:45;;;;;;;6.07;1.13;;;8.70;99.90;;;;;;12539782;28;20088;-83
2023/04/25 11:34:53;;;;;;;3.88;0.90;;;8.50;99.90;;;;;;12494930;28;20421;-85
2023/04/25 11:41:02;;;;;;;8.20;1.55;;;8.30;99.90;;;;;;12501583;28;20511;-85
2023/04/25 11:47:11;;;;;;;7.00;1.15;;;8.50;99.90;;;;;;12515258;28;20431;-84
2023/04/25 11:53:19;;;;;;;7.22;1.33;;;8.90;99.90;;;;;;12538213;28;20046;-84
2023/04/25 11:59:27;;;;;;;4.85;1.10;;;9.10;99.90;;;;;;12520322;28;20531;-83
2023/04/25 12:05:37;;;;;;;7.70;0.90;;;9.20;99.90;;;;;;12520055;28;20148;-84
2023/04/25 12:11:56;;;;;;;4.57;1.00;;;9.50;99.90;;;;;;12509857;28;20553;-85
2023/04/25 12:18:06;;;;;;;3.75;0.60;;;9.90;99.90;;;;;;12530904;28;20477;-85
2023/04/25 12:24:17;;;;;;;3.42;0.80;;;10.40;99.90;;;;;;12525372;28;20120;-84
2023/04/25 12:30:26;;;;;;;3.58;0.70;;;9.90;99.90;;;;;;12517194;28;20076;-84
2023/04/25 12:36:35;;;;;;;5.07;0.90;;;10.00;99.90;;;;;;12528957;28;20061;-85
2023/04/25 12:42:43;;;;;;;3.47;0.70;;;10.20;99.90;;;;;;12502505;28;20053;-85
2023/04/25 12:48:51;;;;;;;5.25;1.10;;;10.80;99.90;;;;;;12502697;28;20080;-85
2023/04/25 12:55:12;;;;;;;4.63;0.90;;;10.30;99.90;;;;;;12510064;28;20041;-85
2023/04/25 13:01:21;;;;;;;3.75;0.90;;;9.40;99.90;;;;;;12514785;28;20056;-84
2023/04/25 13:07:30;;;;;;;5.20;0.75;;;9.60;99.90;;;;;;12528540;28;20465;-85
2023/04/25 13:13:39;;;;;;;5.65;0.98;;;10.40;99.90;;;;;;12520298;28;20041;-85
2023/04/25 13:20:05;;;;;;;4.70;0.90;;;10.10;99.90;;;;;;12509136;28;20045;-84
2023/04/25 13:26:20;;;;;;;7.07;1.08;;;10.00;99.90;;;;;;12514870;28;20131;-85
2023/04/25 13:32:28;;;;;;;4.25;0.90;;;10.40;99.90;;;;;;12500727;28;20071;-85
2023/04/25 13:38:36;;;;;;;3.78;0.60;;;10.60;99.90;;;;;;12512929;28;20050;-84
2023/04/25 13:44:52;;;;;;;3.35;0.65;;;10.10;99.90;;;;;;12513564;28;20112;-84
2023/04/25 13:51:01;;;;;;;4.07;0.73;;;9.60;99.90;;;;;;12512425;28;20044;-85
2023/04/25 13:57:10;;;;;;;5.15;1.75;;;10.10;99.90;;;;;;12510399;28;20053;-85
2023/04/25 14:03:19;;;;;;;2.22;0.88;;;10.70;99.90;;;;;;12493138;28;20061;-83
2023/04/25 14:09:28;;;;;;;4.93;1.00;;;10.70;99.90;;;;;;12515145;28;20060;-85
2023/04/25 14:15:36;;;;;;;4.28;1.00;;;10.70;99.90;;;;;;12504242;28;20045;-85
2023/04/25 14:21:46;;;;;;;3.72;1.17;;;10.20;99.90;;;;;;12510600;28;20064;-86
2023/04/25 14:28:01;;;;;;;3.78;1.00;;;10.40;99.90;;;;;;12443386;28;20066;-84
2023/04/25 14:34:10;;;;;;;4.47;0.90;;;10.20;99.90;;;;;;12462234;28;20478;-85
2023/04/25 14:40:22;;;;;;;1.90;0.70;;;9.70;99.90;;;;;;12457589;28;20076;-84
2023/04/25 14:46:30;;;;;;;4.13;0.85;;;10.10;99.90;;;;;;12460203;28;20062;-83
2023/04/25 14:52:38;;;;;;;2.83;0.77;;;10.70;99.90;;;;;;12468316;28;20042;-84
2023/04/25 14:58:47;;;;;;;5.13;1.35;;;10.20;99.90;;;;;;12474713;28;20064;-85
2023/04/25 15:04:56;;;;;;;4.05;0.90;;;9.40;99.90;;;;;;12453072;28;20079;-84
2023/04/25 15:11:05;;;;;;;5.35;0.95;;;9.00;99.90;;;;;;12479015;28;20050;-84
2023/04/25 15:17:14;;;;;;;2.40;1.05;;;8.10;99.90;;;;;;12462517;28;20061;-84
2023/04/25 15:23:23;;;;;;;5.13;0.70;;;7.60;99.90;;;;;;12487390;28;20417;-84
2023/04/25 15:29:32;;;;;;;3.60;0.82;;;7.20;99.90;;;;;;12523774;28;20060;-84
2023/04/25 15:35:40;;;;;;;3.15;0.90;;;7.30;99.90;;;;;;12529649;28;20446;-84
2023/04/25 15:41:48;;;;;;;3.67;1.00;;;7.60;99.90;;;;;;12515965;28;20057;-85
2023/04/25 15:47:57;;;;;;;5.10;1.00;;;7.80;99.90;;;;;;12541148;28;20045;-84
2023/04/25 15:54:07;;;;;;;7.05;0.88;;;7.80;99.90;;;;;;12517364;28;20043;-84
2023/04/25 16:00:20;;;;;;;6.55;0.95;;;8.50;99.90;;;;;;12533488;28;20065;-84
2023/04/25 16:06:30;;;;;;;5.37;1.00;;;9.20;99.90;;;;;;12527097;28;20115;-83
2023/04/25 16:12:41;;;;;;;6.43;1.10;;;9.40;99.90;;;;;;12532178;28;20045;-84
2023/04/25 16:18:49;;;;;;;4.43;0.88;;;8.60;99.90;;;;;;12494935;28;20493;-83
2023/04/25 16:24:58;;;;;;;4.82;1.00;;;8.40;99.90;;;;;;12502059;28;20110;-83
2023/04/25 16:31:06;;;;;;;3.33;1.00;;;8.10;99.90;;;;;;12521822;28;20140;-83
2023/04/25 16:37:15;;;;;;;2.97;0.93;;;7.90;99.90;;;;;;12534563;28;20142;-84
2023/04/25 16:43:31;;;;;;;3.95;0.88;;;7.70;99.90;;;;;;12503275;28;20250;-84
2023/04/25 16:49:39;;;;;;;2.70;0.70;;;7.60;99.90;;;;;;12524855;28;20053;-84
2023/04/25 16:55:48;;;;;;;5.90;1.00;;;7.70;99.90;;;;;;12507401;28;20133;-84
2023/04/25 17:01:58;;;;;;;3.28;0.85;;;8.30;99.90;;;;;;12538316;28;20045;-84
2023/04/25 17:08:07;;;;;;;3.65;1.00;;;9.00;99.90;;;;;;12538241;28;20491;-84
2023/04/25 17:14:15;;;;;;;3.88;0.88;;;9.30;99.90;;;;;;12514349;28;20049;-84
2023/04/25 17:20:23;;;;;;;6.18;1.70;;;9.20;99.90;;;;;;12517811;28;20512;-84
2023/04/25 17:26:33;;;;;;;3.25;0.90;;;9.00;99.90;;;;;;12506273;28;20068;-84
2023/04/25 17:32:41;;;;;;;7.60;1.10;;;8.40;99.90;;;;;;12519387;28;20049;-84
2023/04/25 17:38:49;;;;;;;3.88;1.00;;;8.00;99.90;;;;;;12513880;28;20056;-84
2023/04/25 17:44:57;;;;;;;6.13;1.20;;;7.90;99.90;;;;;;12512641;28;20049;-84
2023/04/25 17:51:06;;;;;;;8.00;0.82;;;7.80;99.90;;;;;;12514595;28;20214;-84
2023/04/25 17:57:15;;;;;;;5.13;0.98;;;7.50;99.90;;;;;;12514182;28;20128;-84
2023/04/25 18:03:23;;;;;;;8.20;1.10;;;7.20;99.90;;;;;;12508806;28;20049;-83
2023/04/25 18:09:33;;;;;;;3.10;0.60;;;7.30;99.90;;;;;;12519660;28;20103;-83
2023/04/25 18:15:41;;;;;;;4.82;1.27;;;7.10;99.90;;;;;;12500821;28;20045;-84
2023/04/25 18:21:53;;;;;;;4.22;1.50;;;6.90;99.90;;;;;;12518930;28;20130;-83
2023/04/25 18:28:07;;;;;;;6.07;1.30;;;6.90;99.90;;;;;;12452060;28;20136;-83
2023/04/25 18:34:19;;;;;;;6.20;1.02;;;6.90;99.90;;;;;;12460097;28;20050;-82
2023/04/25 18:40:28;;;;;;;6.25;1.25;;;6.60;99.90;;;;;;12447099;28;20054;-82
2023/04/25 18:46:51;;;;;;;9.07;1.30;;;6.70;99.90;;;;;;12479198;28;20049;-83
2023/04/25 18:52:59;;;;;;;5.40;1.10;;;6.70;99.90;;;;;;12465043;28;20113;-83
2023/04/25 18:59:07;;;;;;;4.45;1.15;;;6.60;99.90;;;;;;12463187;28;20049;-83
2023/04/25 19:05:15;;;;;;;10.48;1.75;;;6.50;99.90;;;;;;12449967;28;20190;-83
2023/04/25 19:11:24;;;;;;;4.03;1.35;;;6.40;99.90;;;;;;12450612;28;20468;-83
2023/04/25 19:17:32;;;;;;;3.65;1.30;;;6.50;99.90;;;;;;12457141;28;20215;-83
2023/04/25 19:23:40;;;;;;;7.13;1.52;;;6.40;99.90;;;;;;12446863;28;20057;-83
2023/04/25 19:29:56;;;;;;;7.85;1.42;;;6.40;99.90;;;;;;12503660;28;20088;-83
2023/04/25 19:36:05;;;;;;;6.57;1.75;;;6.20;99.90;;;;;;12503544;28;20080;-83
2023/04/25 19:42:14;;;;;;;4.75;1.27;;;6.20;99.90;;;;;;12504943;28;20397;-83
2023/04/25 19:48:23;;;;;;;6.88;1.50;;;6.20;99.90;;;;;;12523944;28;20131;-82
2023/04/25 19:54:33;;;;;;;4.40;1.40;;;6.00;99.90;;;;;;12515599;28;20412;-83
2023/04/25 20:00:41;;;;;;;11.45;1.80;;;6.00;99.90;;;;;;12496977;28;20045;-83
2023/04/25 20:06:49;;;;;;;9.88;1.65;;;5.90;99.90;;;;;;12519067;28;20080;-83
2023/04/25 20:12:58;;;;;;;10.13;2.00;;;5.90;99.90;;;;;;12509452;28;20088;-83
2023/04/25 20:19:06;;;;;;;8.98;2.00;;;5.90;99.90;;;;;;12502870;28;20045;-83
2023/04/25 20:25:14;;;;;;;7.97;2.15;;;5.90;99.90;;;;;;12513518;28;20060;-83
2023/04/25 20:31:22;;;;;;;9.85;2.55;;;5.90;99.90;;;;;;12510233;28;20242;-83
2023/04/25 20:37:32;;;;;;;8.20;2.55;;;5.80;99.90;;;;;;12504071;28;20641;-83
2023/04/25 20:43:41;;;;;;;7.07;2.13;;;5.70;99.90;;;;;;12488203;28;20059;-83
2023/04/25 20:49:49;;;;;;;4.32;1.98;;;5.60;99.90;;;;;;12518708;28;20054;-83
2023/04/25 20:55:58;;;;;;;9.55;2.10;;;5.50;99.90;;;;;;12520054;28;20041;-83
2023/04/25 21:02:10;;;;;;;7.68;2.15;;;5.60;99.90;;;;;;12500246;28;20132;-83
2023/04/25 21:08:18;;;;;;;8.02;2.00;;;5.50;99.90;;;;;;12511748;28;20089;-82
2023/04/25 21:14:26;;;;;;;9.30;2.30;;;5.40;99.90;;;;;;12480212;28;20445;-83
2023/04/25 21:20:34;;;;;;;5.38;2.10;;;5.40;99.90;;;;;;12528529;28;20040;-83
2023/04/25 21:26:44;;;;;;;6.72;2.50;;;5.60;99.90;;;;;;12535501;28;20057;-82
2023/04/25 21:32:52;;;;;;;7.15;2.38;;;5.30;99.90;;;;;;12519636;28;20077;-83
2023/04/25 21:39:01;;;;;;;5.97;2.40;;;5.30;99.90;;;;;;12508733;28;20049;-83
2023/04/25 21:45:11;;;;;;;4.25;2.45;;;5.30;99.90;;;;;;12517056;28;20076;-82
2023/04/25 21:51:19;;;;;;;9.90;2.40;;;5.20;99.90;;;;;;12524659;28;20057;-82
2023/04/25 21:57:28;;;;;;;5.43;2.42;;;5.10;99.90;;;;;;12514218;28;20081;-82
2023/04/25 22:03:36;;;;;;;6.55;2.50;;;5.00;99.90;;;;;;12515624;28;20052;-82
2023/04/25 22:09:44;;;;;;;7.95;2.45;;;5.00;99.90;;;;;;12509060;28;20417;-83
2023/04/25 22:15:56;;;;;;;10.23;2.75;;;4.80;99.90;;;;;;12501660;28;20056;-83
2023/04/25 22:22:04;;;;;;;7.10;2.20;;;4.80;99.90;;;;;;12506963;28;20481;-84
2023/04/25 22:28:20;;;;;;;4.82;2.13;;;4.60;99.90;;;;;;12467243;28;20054;-83
2023/04/25 22:34:28;;;;;;;5.32;1.80;;;4.50;99.90;;;;;;12457541;28;20116;-82
2023/04/25 22:40:36;;;;;;;8.85;2.00;;;4.60;99.90;;;;;;12459811;28;20068;-82
2023/04/25 22:46:44;;;;;;;6.07;1.98;;;4.70;99.90;;;;;;12445165;28;20053;-83
2023/04/25 22:52:52;;;;;;;8.48;2.42;;;4.60;99.90;;;;;;12449675;28;20050;-82
2023/04/25 22:59:00;;;;;;;10.40;2.03;;;4.40;99.90;;;;;;12441934;28;20057;-82
2023/04/25 23:05:08;;;;;;;7.20;2.25;;;4.50;99.90;;;;;;12455009;28;20057;-83
2023/04/25 23:11:16;;;;;;;13.27;2.60;;;4.20;99.90;;;;;;12493263;28;20056;-83
2023/04/25 23:17:25;;;;;;;8.65;3.05;;;4.10;99.90;;;;;;12522746;28;20045;-83
2023/04/25 23:23:35;;;;;;;13.82;1.92;;;4.00;99.90;;;;;;12492767;28;20045;-83
2023/04/25 23:29:54;;;;;;;10.45;2.55;;;4.00;99.90;;;;;;12468758;28;20052;-83
2023/04/25 23:36:02;;;;;;;6.18;2.35;;;4.00;99.90;;;;;;12439734;28;20049;-83
2023/04/25 23:42:11;;;;;;;8.23;2.08;;;4.00;99.90;;;;;;12461185;28;20078;-82
2023/04/25 23:48:19;;;;;;;10.32;2.50;;;3.90;99.90;;;;;;12455850;28;20383;-83
2023/04/25 23:54:27;;;;;;;6.90;2.05;;;3.70;99.90;;;;;;12479276;28;20084;-82
